sensor_id;sensor_type;location;lat;lon;timestamp;P1;durP1;ratioP1;P2;durP2;ratioP2
35612;SDS011;22054;51.646;7.078;2023-05-07T00:03:24;0.00;;;0.00;;
35612;SDS011;22054;51.646;7.078;2023-05-07T00:06:48;0.00;;;0.00;;
35612;SDS011;22054;51.646;7.078;2023-05-07T00:10:13;0.00;;;0.00;;
35612;SDS011;22054;51.646;7.078;2023-05-07T00:13:37;0.00;;;0.00;;
35612;SDS011;22054;51.646;7.078;2023-05-07T00:17:01;0.00;;;0.00;;
35612;SDS011;22054;51.646;7.078;2023-05-07T00:20:25;0.00;;;0.00;;
35612;SDS011;22054;51.646;7.078;2023-05-07T00:23:53;0.00;;;0.00;;
35612;SDS011;22054;51.646;7.078;2023-05-07T00:27:18;0.10;;;0.10;;
35612;SDS011;22054;51.646;7.078;2023-05-07T00:30:42;3.13;;;3.03;;
35612;SDS011;22054;51.646;7.078;2023-05-07T00:34:06;4.20;;;4.00;;
35612;SDS011;22054;51.646;7.078;2023-05-07T00:37:31;4.97;;;4.78;;
35612;SDS011;22054;51.646;7.078;2023-05-07T00:40:55;6.22;;;6.03;;
35612;SDS011;22054;51.646;7.078;2023-05-07T00:44:19;5.65;;;5.45;;
35612;SDS011;22054;51.646;7.078;2023-05-07T00:47:44;11.80;;;11.30;;
35612;SDS011;22054;51.646;7.078;2023-05-07T00:51:09;8.45;;;8.02;;
35612;SDS011;22054;51.646;7.078;2023-05-07T00:54:38;0.00;;;0.00;;
35612;SDS011;22054;51.646;7.078;2023-05-07T00:58:04;0.00;;;0.00;;
35612;SDS011;22054;51.646;7.078;2023-05-07T01:01:29;0.00;;;0.00;;
35612;SDS011;22054;51.646;7.078;2023-05-07T01:04:54;0.00;;;0.00;;
35612;SDS011;22054;51.646;7.078;2023-05-07T01:08:19;0.00;;;0.00;;
35612;SDS011;22054;51.646;7.078;2023-05-07T01:11:46;0.00;;;0.00;;
35612;SDS011;22054;51.646;7.078;2023-05-07T01:15:12;0.00;;;0.00;;
35612;SDS011;22054;51.646;7.078;2023-05-07T01:18:37;0.00;;;0.00;;
35612;SDS011;22054;51.646;7.078;2023-05-07T01:22:03;0.00;;;0.00;;
35612;SDS011;22054;51.646;7.078;2023-05-07T01:25:30;0.00;;;0.00;;
35612;SDS011;22054;51.646;7.078;2023-05-07T01:28:55;0.00;;;0.00;;
35612;SDS011;22054;51.646;7.078;2023-05-07T01:32:21;0.00;;;0.00;;
35612;SDS011;22054;51.646;7.078;2023-05-07T01:35:52;0.00;;;0.00;;
35612;SDS011;22054;51.646;7.078;2023-05-07T01:39:17;0.00;;;0.00;;
35612;SDS011;22054;51.646;7.078;2023-05-07T01:42:45;0.00;;;0.00;;
35612;SDS011;22054;51.646;7.078;2023-05-07T01:46:10;0.00;;;0.00;;
35612;SDS011;22054;51.646;7.078;2023-05-07T01:49:35;0.00;;;0.00;;
35612;SDS011;22054;51.646;7.078;2023-05-07T01:52:59;0.00;;;0.00;;
35612;SDS011;22054;51.646;7.078;2023-05-07T01:56:25;0.00;;;0.00;;
35612;SDS011;22054;51.646;7.078;2023-05-07T01:59:49;0.00;;;0.00;;
35612;SDS011;22054;51.646;7.078;2023-05-07T02:03:14;0.00;;;0.00;;
35612;SDS011;22054;51.646;7.078;2023-05-07T02:06:38;0.00;;;0.00;;
35612;SDS011;22054;51.646;7.078;2023-05-07T02:10:02;0.00;;;0.00;;
35612;SDS011;22054;51.646;7.078;2023-05-07T02:13:28;0.00;;;0.00;;
35612;SDS011;22054;51.646;7.078;2023-05-07T02:16:53;0.00;;;0.00;;
35612;SDS011;22054;51.646;7.078;2023-05-07T02:20:25;0.00;;;0.00;;
35612;SDS011;22054;51.646;7.078;2023-05-07T02:23:50;0.00;;;0.00;;
35612;SDS011;22054;51.646;7.078;2023-05-07T02:27:14;0.00;;;0.00;;
35612;SDS011;22054;51.646;7.078;2023-05-07T02:30:38;0.00;;;0.00;;
35612;SDS011;22054;51.646;7.078;2023-05-07T02:34:03;0.00;;;0.00;;
35612;SDS011;22054;51.646;7.078;2023-05-07T02:37:27;0.00;;;0.00;;
35612;SDS011;22054;51.646;7.078;2023-05-07T02:40:51;0.00;;;0.00;;
35612;SDS011;22054;51.646;7.078;2023-05-07T02:44:15;0.00;;;0.00;;
35612;SDS011;22054;51.646;7.078;2023-05-07T02:47:39;0.00;;;0.00;;
35612;SDS011;22054;51.646;7.078;2023-05-07T02:51:04;0.00;;;0.00;;
35612;SDS011;22054;51.646;7.078;2023-05-07T02:54:28;0.00;;;0.00;;
35612;SDS011;22054;51.646;7.078;2023-05-07T02:57:52;0.00;;;0.00;;
35612;SDS011;22054;51.646;7.078;2023-05-07T03:01:16;0.00;;;0.00;;
35612;SDS011;22054;51.646;7.078;2023-05-07T03:04:41;0.00;;;0.00;;
35612;SDS011;22054;51.646;7.078;2023-05-07T03:08:05;0.00;;;0.00;;
35612;SDS011;22054;51.646;7.078;2023-05-07T03:11:29;0.00;;;0.00;;
35612;SDS011;22054;51.646;7.078;2023-05-07T03:14:54;0.00;;;0.00;;
35612;SDS011;22054;51.646;7.078;2023-05-07T03:18:18;0.00;;;0.00;;
35612;SDS011;22054;51.646;7.078;2023-05-07T03:21:42;0.00;;;0.00;;
35612;SDS011;22054;51.646;7.078;2023-05-07T03:25:06;0.00;;;0.00;;
35612;SDS011;22054;51.646;7.078;2023-05-07T03:28:32;0.00;;;0.00;;
35612;SDS011;22054;51.646;7.078;2023-05-07T03:31:56;0.00;;;0.00;;
35612;SDS011;22054;51.646;7.078;2023-05-07T03:35:20;0.00;;;0.00;;
35612;SDS011;22054;51.646;7.078;2023-05-07T03:38:45;0.00;;;0.00;;
35612;SDS011;22054;51.646;7.078;2023-05-07T03:42:09;0.00;;;0.00;;
35612;SDS011;22054;51.646;7.078;2023-05-07T03:45:33;0.00;;;0.00;;
35612;SDS011;22054;51.646;7.078;2023-05-07T03:48:58;0.00;;;0.00;;
35612;SDS011;22054;51.646;7.078;2023-05-07T03:52:22;0.00;;;0.00;;
35612;SDS011;22054;51.646;7.078;2023-05-07T03:55:47;0.00;;;0.00;;
35612;SDS011;22054;51.646;7.078;2023-05-07T03:59:12;0.00;;;0.00;;
35612;SDS011;22054;51.646;7.078;2023-05-07T04:02:37;0.00;;;0.00;;
35612;SDS011;22054;51.646;7.078;2023-05-07T04:06:01;0.00;;;0.00;;
35612;SDS011;22054;51.646;7.078;2023-05-07T04:09:25;0.00;;;0.00;;
35612;SDS011;22054;51.646;7.078;2023-05-07T04:12:49;0.00;;;0.00;;
35612;SDS011;22054;51.646;7.078;2023-05-07T04:16:14;0.00;;;0.00;;
35612;SDS011;22054;51.646;7.078;2023-05-07T04:19:39;0.00;;;0.00;;
35612;SDS011;22054;51.646;7.078;2023-05-07T04:23:04;0.00;;;0.00;;
35612;SDS011;22054;51.646;7.078;2023-05-07T04:26:28;0.00;;;0.00;;
35612;SDS011;22054;51.646;7.078;2023-05-07T04:29:53;0.00;;;0.00;;
35612;SDS011;22054;51.646;7.078;2023-05-07T04:33:17;0.00;;;0.00;;
35612;SDS011;22054;51.646;7.078;2023-05-07T04:36:41;0.00;;;0.00;;
35612;SDS011;22054;51.646;7.078;2023-05-07T04:40:06;0.00;;;0.00;;
35612;SDS011;22054;51.646;7.078;2023-05-07T04:43:31;0.00;;;0.00;;
35612;SDS011;22054;51.646;7.078;2023-05-07T04:46:56;0.00;;;0.00;;
35612;SDS011;22054;51.646;7.078;2023-05-07T04:50:20;0.00;;;0.00;;
35612;SDS011;22054;51.646;7.078;2023-05-07T04:53:44;0.00;;;0.00;;
35612;SDS011;22054;51.646;7.078;2023-05-07T04:57:09;0.00;;;0.00;;
35612;SDS011;22054;51.646;7.078;2023-05-07T05:00:33;0.00;;;0.00;;
35612;SDS011;22054;51.646;7.078;2023-05-07T05:03:57;0.00;;;0.00;;
35612;SDS011;22054;51.646;7.078;2023-05-07T05:07:22;0.00;;;0.00;;
35612;SDS011;22054;51.646;7.078;2023-05-07T05:10:46;0.00;;;0.00;;
35612;SDS011;22054;51.646;7.078;2023-05-07T05:14:10;0.00;;;0.00;;
35612;SDS011;22054;51.646;7.078;2023-05-07T05:17:36;0.00;;;0.00;;
35612;SDS011;22054;51.646;7.078;2023-05-07T05:21:00;0.00;;;0.00;;
35612;SDS011;22054;51.646;7.078;2023-05-07T05:24:26;0.00;;;0.00;;
35612;SDS011;22054;51.646;7.078;2023-05-07T05:27:50;0.00;;;0.00;;
35612;SDS011;22054;51.646;7.078;2023-05-07T05:31:15;0.00;;;0.00;;
35612;SDS011;22054;51.646;7.078;2023-05-07T05:34:40;0.00;;;0.00;;
35612;SDS011;22054;51.646;7.078;2023-05-07T05:38:04;0.00;;;0.00;;
35612;SDS011;22054;51.646;7.078;2023-05-07T05:41:28;0.00;;;0.00;;
35612;SDS011;22054;51.646;7.078;2023-05-07T05:44:53;0.00;;;0.00;;
35612;SDS011;22054;51.646;7.078;2023-05-07T05:48:17;0.00;;;0.00;;
35612;SDS011;22054;51.646;7.078;2023-05-07T05:51:41;0.00;;;0.00;;
35612;SDS011;22054;51.646;7.078;2023-05-07T05:55:07;0.00;;;0.00;;
35612;SDS011;22054;51.646;7.078;2023-05-07T05:58:31;0.00;;;0.00;;
35612;SDS011;22054;51.646;7.078;2023-05-07T06:01:56;0.00;;;0.00;;
35612;SDS011;22054;51.646;7.078;2023-05-07T06:05:20;0.00;;;0.00;;
35612;SDS011;22054;51.646;7.078;2023-05-07T06:08:44;0.00;;;0.00;;
35612;SDS011;22054;51.646;7.078;2023-05-07T06:12:09;0.00;;;0.00;;
35612;SDS011;22054;51.646;7.078;2023-05-07T06:15:33;0.00;;;0.00;;
35612;SDS011;22054;51.646;7.078;2023-05-07T06:18:57;0.00;;;0.00;;
35612;SDS011;22054;51.646;7.078;2023-05-07T06:22:21;0.00;;;0.00;;
35612;SDS011;22054;51.646;7.078;2023-05-07T06:25:49;0.00;;;0.00;;
35612;SDS011;22054;51.646;7.078;2023-05-07T06:29:14;0.00;;;0.00;;
35612;SDS011;22054;51.646;7.078;2023-05-07T06:32:39;0.00;;;0.00;;
35612;SDS011;22054;51.646;7.078;2023-05-07T06:36:05;0.00;;;0.00;;
35612;SDS011;22054;51.646;7.078;2023-05-07T06:39:30;0.00;;;0.00;;
35612;SDS011;22054;51.646;7.078;2023-05-07T06:42:54;0.00;;;0.00;;
35612;SDS011;22054;51.646;7.078;2023-05-07T06:46:18;0.00;;;0.00;;
35612;SDS011;22054;51.646;7.078;2023-05-07T06:49:43;0.00;;;0.00;;
35612;SDS011;22054;51.646;7.078;2023-05-07T06:53:07;0.00;;;0.00;;
35612;SDS011;22054;51.646;7.078;2023-05-07T06:56:31;0.00;;;0.00;;
35612;SDS011;22054;51.646;7.078;2023-05-07T06:59:56;0.00;;;0.00;;
35612;SDS011;22054;51.646;7.078;2023-05-07T07:03:20;0.00;;;0.00;;
35612;SDS011;22054;51.646;7.078;2023-05-07T07:06:47;0.00;;;0.00;;
35612;SDS011;22054;51.646;7.078;2023-05-07T07:10:17;0.00;;;0.00;;
35612;SDS011;22054;51.646;7.078;2023-05-07T07:13:45;0.00;;;0.00;;
35612;SDS011;22054;51.646;7.078;2023-05-07T07:17:09;0.00;;;0.00;;
35612;SDS011;22054;51.646;7.078;2023-05-07T07:20:37;0.00;;;0.00;;
35612;SDS011;22054;51.646;7.078;2023-05-07T07:24:01;0.00;;;0.00;;
35612;SDS011;22054;51.646;7.078;2023-05-07T07:27:25;0.00;;;0.00;;
35612;SDS011;22054;51.646;7.078;2023-05-07T07:30:49;0.00;;;0.00;;
35612;SDS011;22054;51.646;7.078;2023-05-07T07:34:15;0.00;;;0.00;;
35612;SDS011;22054;51.646;7.078;2023-05-07T07:37:39;0.00;;;0.00;;
35612;SDS011;22054;51.646;7.078;2023-05-07T07:41:03;0.00;;;0.00;;
35612;SDS011;22054;51.646;7.078;2023-05-07T07:44:27;0.00;;;0.00;;
35612;SDS011;22054;51.646;7.078;2023-05-07T07:47:52;0.00;;;0.00;;
35612;SDS011;22054;51.646;7.078;2023-05-07T07:51:16;0.00;;;0.00;;
35612;SDS011;22054;51.646;7.078;2023-05-07T07:54:40;0.00;;;0.00;;
35612;SDS011;22054;51.646;7.078;2023-05-07T07:58:05;0.00;;;0.00;;
35612;SDS011;22054;51.646;7.078;2023-05-07T08:01:30;0.00;;;0.00;;
35612;SDS011;22054;51.646;7.078;2023-05-07T08:04:55;0.00;;;0.00;;
35612;SDS011;22054;51.646;7.078;2023-05-07T08:08:19;0.00;;;0.00;;
35612;SDS011;22054;51.646;7.078;2023-05-07T08:11:44;0.00;;;0.00;;
35612;SDS011;22054;51.646;7.078;2023-05-07T08:15:09;0.00;;;0.00;;
35612;SDS011;22054;51.646;7.078;2023-05-07T08:18:33;0.00;;;0.00;;
35612;SDS011;22054;51.646;7.078;2023-05-07T08:21:58;0.00;;;0.00;;
35612;SDS011;22054;51.646;7.078;2023-05-07T08:25:22;0.00;;;0.00;;
35612;SDS011;22054;51.646;7.078;2023-05-07T08:28:46;0.00;;;0.00;;
35612;SDS011;22054;51.646;7.078;2023-05-07T08:32:12;0.00;;;0.00;;
35612;SDS011;22054;51.646;7.078;2023-05-07T08:35:36;0.00;;;0.00;;
35612;SDS011;22054;51.646;7.078;2023-05-07T08:39:00;0.00;;;0.00;;
35612;SDS011;22054;51.646;7.078;2023-05-07T08:42:25;0.00;;;0.00;;
35612;SDS011;22054;51.646;7.078;2023-05-07T08:45:53;0.00;;;0.00;;
35612;SDS011;22054;51.646;7.078;2023-05-07T08:49:19;0.00;;;0.00;;
35612;SDS011;22054;51.646;7.078;2023-05-07T08:52:44;0.00;;;0.00;;
35612;SDS011;22054;51.646;7.078;2023-05-07T08:56:10;0.00;;;0.00;;
35612;SDS011;22054;51.646;7.078;2023-05-07T08:59:35;0.00;;;0.00;;
35612;SDS011;22054;51.646;7.078;2023-05-07T09:03:01;0.00;;;0.00;;
35612;SDS011;22054;51.646;7.078;2023-05-07T09:06:25;0.00;;;0.00;;
35612;SDS011;22054;51.646;7.078;2023-05-07T09:09:49;0.00;;;0.00;;
35612;SDS011;22054;51.646;7.078;2023-05-07T09:13:14;0.00;;;0.00;;
35612;SDS011;22054;51.646;7.078;2023-05-07T09:16:38;0.00;;;0.00;;
35612;SDS011;22054;51.646;7.078;2023-05-07T09:20:03;0.00;;;0.00;;
35612;SDS011;22054;51.646;7.078;2023-05-07T09:23:28;0.00;;;0.00;;
35612;SDS011;22054;51.646;7.078;2023-05-07T09:26:57;0.00;;;0.00;;
35612;SDS011;22054;51.646;7.078;2023-05-07T09:30:21;0.00;;;0.00;;
35612;SDS011;22054;51.646;7.078;2023-05-07T09:33:48;0.00;;;0.00;;
35612;SDS011;22054;51.646;7.078;2023-05-07T09:37:12;0.00;;;0.00;;
35612;SDS011;22054;51.646;7.078;2023-05-07T09:40:38;0.00;;;0.00;;
35612;SDS011;22054;51.646;7.078;2023-05-07T09:44:09;0.00;;;0.00;;
35612;SDS011;22054;51.646;7.078;2023-05-07T09:47:33;0.00;;;0.00;;
35612;SDS011;22054;51.646;7.078;2023-05-07T09:51:06;0.00;;;0.00;;
35612;SDS011;22054;51.646;7.078;2023-05-07T09:54:45;0.00;;;0.00;;
35612;SDS011;22054;51.646;7.078;2023-05-07T09:58:12;0.00;;;0.00;;
35612;SDS011;22054;51.646;7.078;2023-05-07T10:01:40;0.00;;;0.00;;
35612;SDS011;22054;51.646;7.078;2023-05-07T10:05:12;0.00;;;0.00;;
35612;SDS011;22054;51.646;7.078;2023-05-07T10:08:37;0.00;;;0.00;;
35612;SDS011;22054;51.646;7.078;2023-05-07T10:12:03;0.00;;;0.00;;
35612;SDS011;22054;51.646;7.078;2023-05-07T10:15:35;0.00;;;0.00;;
35612;SDS011;22054;51.646;7.078;2023-05-07T10:19:04;0.00;;;0.00;;
35612;SDS011;22054;51.646;7.078;2023-05-07T10:22:41;0.00;;;0.00;;
35612;SDS011;22054;51.646;7.078;2023-05-07T10:26:11;3.05;;;2.95;;
35612;SDS011;22054;51.646;7.078;2023-05-07T10:29:57;0.85;;;0.85;;
35612;SDS011;22054;51.646;7.078;2023-05-07T10:33:42;5.93;;;5.72;;
35612;SDS011;22054;51.646;7.078;2023-05-07T10:37:10;5.80;;;5.60;;
35612;SDS011;22054;51.646;7.078;2023-05-07T10:40:35;5.68;;;5.47;;
35612;SDS011;22054;51.646;7.078;2023-05-07T10:44:00;5.85;;;5.65;;
35612;SDS011;22054;51.646;7.078;2023-05-07T10:47:36;6.00;;;5.80;;
35612;SDS011;22054;51.646;7.078;2023-05-07T10:51:41;6.70;;;6.40;;
35612;SDS011;22054;51.646;7.078;2023-05-07T10:58:41;6.00;;;5.80;;
35612;SDS011;22054;51.646;7.078;2023-05-07T11:02:06;6.10;;;5.90;;
35612;SDS011;22054;51.646;7.078;2023-05-07T11:05:32;6.00;;;5.80;;
35612;SDS011;22054;51.646;7.078;2023-05-07T11:08:59;6.38;;;6.18;;
35612;SDS011;22054;51.646;7.078;2023-05-07T11:16:21;6.28;;;6.07;;
35612;SDS011;22054;51.646;7.078;2023-05-07T11:19:53;6.28;;;6.07;;
35612;SDS011;22054;51.646;7.078;2023-05-07T11:27:03;6.40;;;6.20;;
35612;SDS011;22054;51.646;7.078;2023-05-07T11:30:36;6.35;;;6.15;;
35612;SDS011;22054;51.646;7.078;2023-05-07T11:34:01;6.30;;;6.10;;
35612;SDS011;22054;51.646;7.078;2023-05-07T11:37:26;6.38;;;6.18;;
35612;SDS011;22054;51.646;7.078;2023-05-07T11:40:57;6.20;;;6.00;;
35612;SDS011;22054;51.646;7.078;2023-05-07T11:44:22;6.22;;;6.03;;
35612;SDS011;22054;51.646;7.078;2023-05-07T11:47:52;6.15;;;5.95;;
35612;SDS011;22054;51.646;7.078;2023-05-07T11:51:19;6.30;;;6.10;;
35612;SDS011;22054;51.646;7.078;2023-05-07T11:54:49;6.20;;;6.00;;
35612;SDS011;22054;51.646;7.078;2023-05-07T11:58:20;6.22;;;6.03;;
35612;SDS011;22054;51.646;7.078;2023-05-07T12:01:46;5.60;;;5.40;;
35612;SDS011;22054;51.646;7.078;2023-05-07T12:05:10;5.57;;;5.38;;
35612;SDS011;22054;51.646;7.078;2023-05-07T12:08:39;5.80;;;5.60;;
35612;SDS011;22054;51.646;7.078;2023-05-07T12:12:05;5.63;;;5.43;;
35612;SDS011;22054;51.646;7.078;2023-05-07T12:15:38;6.18;;;5.97;;
35612;SDS011;22054;51.646;7.078;2023-05-07T12:19:04;6.20;;;6.00;;
35612;SDS011;22054;51.646;7.078;2023-05-07T12:22:32;6.30;;;6.10;;
35612;SDS011;22054;51.646;7.078;2023-05-07T12:25:57;6.40;;;6.20;;
35612;SDS011;22054;51.646;7.078;2023-05-07T12:29:22;6.35;;;6.15;;
35612;SDS011;22054;51.646;7.078;2023-05-07T12:32:47;6.10;;;5.90;;
35612;SDS011;22054;51.646;7.078;2023-05-07T12:36:16;5.93;;;5.72;;
35612;SDS011;22054;51.646;7.078;2023-05-07T12:39:49;6.20;;;6.00;;
35612;SDS011;22054;51.646;7.078;2023-05-07T12:43:27;5.70;;;5.50;;
35612;SDS011;22054;51.646;7.078;2023-05-07T12:46:57;5.85;;;5.65;;
35612;SDS011;22054;51.646;7.078;2023-05-07T12:50:22;5.72;;;5.53;;
35612;SDS011;22054;51.646;7.078;2023-05-07T12:53:47;6.20;;;6.00;;
35612;SDS011;22054;51.646;7.078;2023-05-07T12:57:11;6.30;;;6.10;;
35612;SDS011;22054;51.646;7.078;2023-05-07T13:01:03;6.30;;;6.10;;
35612;SDS011;22054;51.646;7.078;2023-05-07T13:04:30;6.13;;;5.93;;
35612;SDS011;22054;51.646;7.078;2023-05-07T13:07:57;6.00;;;5.80;;
35612;SDS011;22054;51.646;7.078;2023-05-07T13:11:22;6.20;;;6.00;;
35612;SDS011;22054;51.646;7.078;2023-05-07T13:14:46;5.70;;;5.50;;
35612;SDS011;22054;51.646;7.078;2023-05-07T13:18:11;5.65;;;5.45;;
35612;SDS011;22054;51.646;7.078;2023-05-07T13:21:35;5.85;;;5.65;;
35612;SDS011;22054;51.646;7.078;2023-05-07T13:25:00;5.95;;;5.75;;
35612;SDS011;22054;51.646;7.078;2023-05-07T13:28:24;5.88;;;5.68;;
35612;SDS011;22054;51.646;7.078;2023-05-07T13:31:54;5.63;;;5.43;;
35612;SDS011;22054;51.646;7.078;2023-05-07T13:35:20;5.85;;;5.65;;
35612;SDS011;22054;51.646;7.078;2023-05-07T13:38:48;5.50;;;5.30;;
35612;SDS011;22054;51.646;7.078;2023-05-07T13:42:14;5.05;;;4.85;;
35612;SDS011;22054;51.646;7.078;2023-05-07T13:45:38;5.30;;;5.10;;
35612;SDS011;22054;51.646;7.078;2023-05-07T13:49:02;5.10;;;4.90;;
35612;SDS011;22054;51.646;7.078;2023-05-07T13:52:26;5.30;;;5.10;;
35612;SDS011;22054;51.646;7.078;2023-05-07T13:55:50;4.90;;;4.70;;
35612;SDS011;22054;51.646;7.078;2023-05-07T13:59:15;5.20;;;5.00;;
35612;SDS011;22054;51.646;7.078;2023-05-07T14:02:40;5.18;;;4.97;;
35612;SDS011;22054;51.646;7.078;2023-05-07T14:06:05;5.32;;;5.13;;
35612;SDS011;22054;51.646;7.078;2023-05-07T14:09:30;5.10;;;4.90;;
35612;SDS011;22054;51.646;7.078;2023-05-07T14:12:54;5.03;;;4.82;;
35612;SDS011;22054;51.646;7.078;2023-05-07T14:16:18;5.25;;;5.05;;
35612;SDS011;22054;51.646;7.078;2023-05-07T14:19:43;7.70;;;7.40;;
35612;SDS011;22054;51.646;7.078;2023-05-07T14:23:11;8.23;;;7.93;;
35612;SDS011;22054;51.646;7.078;2023-05-07T14:26:38;9.77;;;9.38;;
35612;SDS011;22054;51.646;7.078;2023-05-07T14:30:03;10.88;;;10.38;;
35612;SDS011;22054;51.646;7.078;2023-05-07T14:33:27;0.00;;;0.00;;
35612;SDS011;22054;51.646;7.078;2023-05-07T14:36:52;2.20;;;2.10;;
35612;SDS011;22054;51.646;7.078;2023-05-07T14:40:16;2.10;;;2.00;;
35612;SDS011;22054;51.646;7.078;2023-05-07T14:43:41;0.20;;;0.20;;
35612;SDS011;22054;51.646;7.078;2023-05-07T14:47:07;0.00;;;0.00;;
35612;SDS011;22054;51.646;7.078;2023-05-07T14:50:34;0.10;;;0.10;;
35612;SDS011;22054;51.646;7.078;2023-05-07T14:53:59;9.43;;;9.02;;
35612;SDS011;22054;51.646;7.078;2023-05-07T14:57:23;0.00;;;0.00;;
35612;SDS011;22054;51.646;7.078;2023-05-07T15:00:48;0.10;;;0.10;;
35612;SDS011;22054;51.646;7.078;2023-05-07T15:04:12;0.10;;;0.10;;
35612;SDS011;22054;51.646;7.078;2023-05-07T15:07:37;0.00;;;0.00;;
35612;SDS011;22054;51.646;7.078;2023-05-07T15:11:01;0.00;;;0.00;;
35612;SDS011;22054;51.646;7.078;2023-05-07T15:14:27;0.00;;;0.00;;
35612;SDS011;22054;51.646;7.078;2023-05-07T15:17:51;0.30;;;0.30;;
35612;SDS011;22054;51.646;7.078;2023-05-07T15:21:16;2.90;;;2.80;;
35612;SDS011;22054;51.646;7.078;2023-05-07T15:24:40;5.47;;;5.28;;
35612;SDS011;22054;51.646;7.078;2023-05-07T15:28:04;0.17;;;0.10;;
35612;SDS011;22054;51.646;7.078;2023-05-07T15:31:32;0.00;;;0.00;;
35612;SDS011;22054;51.646;7.078;2023-05-07T15:34:57;0.00;;;0.00;;
35612;SDS011;22054;51.646;7.078;2023-05-07T15:41:52;0.00;;;0.00;;
35612;SDS011;22054;51.646;7.078;2023-05-07T15:45:24;0.00;;;0.00;;
35612;SDS011;22054;51.646;7.078;2023-05-07T15:49:18;0.00;;;0.00;;
35612;SDS011;22054;51.646;7.078;2023-05-07T15:52:54;0.00;;;0.00;;
35612;SDS011;22054;51.646;7.078;2023-05-07T15:56:24;0.00;;;0.00;;
35612;SDS011;22054;51.646;7.078;2023-05-07T15:59:49;0.00;;;0.00;;
35612;SDS011;22054;51.646;7.078;2023-05-07T16:03:14;0.00;;;0.00;;
35612;SDS011;22054;51.646;7.078;2023-05-07T16:07:22;0.00;;;0.00;;
35612;SDS011;22054;51.646;7.078;2023-05-07T16:10:50;0.10;;;0.10;;
35612;SDS011;22054;51.646;7.078;2023-05-07T16:14:21;0.20;;;0.20;;
35612;SDS011;22054;51.646;7.078;2023-05-07T16:17:52;0.10;;;0.10;;
35612;SDS011;22054;51.646;7.078;2023-05-07T16:21:16;0.90;;;0.90;;
35612;SDS011;22054;51.646;7.078;2023-05-07T16:24:43;0.70;;;0.70;;
35612;SDS011;22054;51.646;7.078;2023-05-07T16:28:13;0.50;;;0.50;;
35612;SDS011;22054;51.646;7.078;2023-05-07T16:31:41;2.50;;;2.40;;
35612;SDS011;22054;51.646;7.078;2023-05-07T16:35:06;0.10;;;0.10;;
35612;SDS011;22054;51.646;7.078;2023-05-07T16:38:31;0.28;;;0.28;;
35612;SDS011;22054;51.646;7.078;2023-05-07T16:41:55;5.60;;;5.10;;
35612;SDS011;22054;51.646;7.078;2023-05-07T16:45:20;5.80;;;5.28;;
35612;SDS011;22054;51.646;7.078;2023-05-07T16:48:48;6.93;;;6.25;;
35612;SDS011;22054;51.646;7.078;2023-05-07T16:52:15;0.00;;;0.00;;
35612;SDS011;22054;51.646;7.078;2023-05-07T16:55:42;0.10;;;0.10;;
35612;SDS011;22054;51.646;7.078;2023-05-07T16:59:15;0.30;;;0.25;;
35612;SDS011;22054;51.646;7.078;2023-05-07T17:02:42;0.00;;;0.00;;
35612;SDS011;22054;51.646;7.078;2023-05-07T17:06:15;0.00;;;0.00;;
35612;SDS011;22054;51.646;7.078;2023-05-07T17:09:47;0.00;;;0.00;;
35612;SDS011;22054;51.646;7.078;2023-05-07T17:13:12;0.00;;;0.00;;
35612;SDS011;22054;51.646;7.078;2023-05-07T17:16:57;0.00;;;0.00;;
35612;SDS011;22054;51.646;7.078;2023-05-07T17:20:51;0.00;;;0.00;;
35612;SDS011;22054;51.646;7.078;2023-05-07T17:24:21;0.00;;;0.00;;
35612;SDS011;22054;51.646;7.078;2023-05-07T17:27:48;0.00;;;0.00;;
35612;SDS011;22054;51.646;7.078;2023-05-07T17:31:17;0.00;;;0.00;;
35612;SDS011;22054;51.646;7.078;2023-05-07T17:34:44;0.00;;;0.00;;
35612;SDS011;22054;51.646;7.078;2023-05-07T17:38:09;0.00;;;0.00;;
35612;SDS011;22054;51.646;7.078;2023-05-07T17:41:37;0.00;;;0.00;;
35612;SDS011;22054;51.646;7.078;2023-05-07T17:45:06;0.00;;;0.00;;
35612;SDS011;22054;51.646;7.078;2023-05-07T17:48:34;0.00;;;0.00;;
35612;SDS011;22054;51.646;7.078;2023-05-07T17:52:01;0.00;;;0.00;;
35612;SDS011;22054;51.646;7.078;2023-05-07T17:55:29;0.00;;;0.00;;
35612;SDS011;22054;51.646;7.078;2023-05-07T17:58:54;0.00;;;0.00;;
35612;SDS011;22054;51.646;7.078;2023-05-07T18:02:27;0.00;;;0.00;;
35612;SDS011;22054;51.646;7.078;2023-05-07T18:05:55;0.00;;;0.00;;
35612;SDS011;22054;51.646;7.078;2023-05-07T18:09:28;9.23;;;8.40;;
35612;SDS011;22054;51.646;7.078;2023-05-07T18:13:00;0.20;;;0.20;;
35612;SDS011;22054;51.646;7.078;2023-05-07T18:16:38;0.30;;;0.30;;
35612;SDS011;22054;51.646;7.078;2023-05-07T18:20:15;0.28;;;0.28;;
35612;SDS011;22054;51.646;7.078;2023-05-07T18:23:45;2.03;;;1.92;;
35612;SDS011;22054;51.646;7.078;2023-05-07T18:27:15;3.53;;;3.42;;
35612;SDS011;22054;51.646;7.078;2023-05-07T18:30:43;6.90;;;6.60;;
35612;SDS011;22054;51.646;7.078;2023-05-07T18:34:34;9.55;;;9.15;;
35612;SDS011;22054;51.646;7.078;2023-05-07T18:38:14;9.60;;;9.20;;
35612;SDS011;22054;51.646;7.078;2023-05-07T18:41:52;8.38;;;8.07;;
35612;SDS011;22054;51.646;7.078;2023-05-07T18:45:30;7.43;;;7.13;;
35612;SDS011;22054;51.646;7.078;2023-05-07T18:48:58;8.40;;;8.10;;
35612;SDS011;22054;51.646;7.078;2023-05-07T18:52:36;7.53;;;7.22;;
35612;SDS011;22054;51.646;7.078;2023-05-07T18:56:05;7.45;;;7.15;;
35612;SDS011;22054;51.646;7.078;2023-05-07T18:59:46;5.90;;;5.70;;
35612;SDS011;22054;51.646;7.078;2023-05-07T19:03:14;5.90;;;5.70;;
35612;SDS011;22054;51.646;7.078;2023-05-07T19:10:35;6.00;;;5.80;;
35612;SDS011;22054;51.646;7.078;2023-05-07T19:14:26;5.07;;;4.88;;
35612;SDS011;22054;51.646;7.078;2023-05-07T19:17:53;5.43;;;5.22;;
35612;SDS011;22054;51.646;7.078;2023-05-07T19:21:36;5.30;;;5.10;;
35612;SDS011;22054;51.646;7.078;2023-05-07T19:25:04;5.60;;;5.40;;
35612;SDS011;22054;51.646;7.078;2023-05-07T19:28:40;5.80;;;5.60;;
35612;SDS011;22054;51.646;7.078;2023-05-07T19:32:20;9.48;;;9.07;;
35612;SDS011;22054;51.646;7.078;2023-05-07T19:35:48;12.02;;;11.52;;
35612;SDS011;22054;51.646;7.078;2023-05-07T19:39:15;4.90;;;4.70;;
35612;SDS011;22054;51.646;7.078;2023-05-07T19:42:42;10.13;;;9.73;;
35612;SDS011;22054;51.646;7.078;2023-05-07T19:46:07;7.72;;;7.43;;
35612;SDS011;22054;51.646;7.078;2023-05-07T19:49:31;5.38;;;5.18;;
35612;SDS011;22054;51.646;7.078;2023-05-07T19:52:55;5.30;;;5.10;;
35612;SDS011;22054;51.646;7.078;2023-05-07T19:56:19;4.80;;;4.60;;
35612;SDS011;22054;51.646;7.078;2023-05-07T19:59:45;4.68;;;4.47;;
35612;SDS011;22054;51.646;7.078;2023-05-07T20:03:09;5.00;;;4.80;;
35612;SDS011;22054;51.646;7.078;2023-05-07T20:06:33;5.00;;;4.80;;
35612;SDS011;22054;51.646;7.078;2023-05-07T20:09:58;7.10;;;6.80;;
35612;SDS011;22054;51.646;7.078;2023-05-07T20:13:22;7.32;;;7.03;;
35612;SDS011;22054;51.646;7.078;2023-05-07T20:16:47;5.63;;;5.43;;
35612;SDS011;22054;51.646;7.078;2023-05-07T20:20:11;5.93;;;5.72;;
35612;SDS011;22054;51.646;7.078;2023-05-07T20:23:35;5.60;;;5.40;;
35612;SDS011;22054;51.646;7.078;2023-05-07T20:27:05;5.82;;;5.63;;
35612;SDS011;22054;51.646;7.078;2023-05-07T20:30:29;5.70;;;5.50;;
35612;SDS011;22054;51.646;7.078;2023-05-07T20:33:57;5.80;;;5.60;;
35612;SDS011;22054;51.646;7.078;2023-05-07T20:37:25;5.70;;;5.50;;
35612;SDS011;22054;51.646;7.078;2023-05-07T20:40:55;5.75;;;5.55;;
35612;SDS011;22054;51.646;7.078;2023-05-07T20:44:19;5.90;;;5.70;;
35612;SDS011;22054;51.646;7.078;2023-05-07T20:47:44;6.20;;;6.00;;
35612;SDS011;22054;51.646;7.078;2023-05-07T20:51:08;5.68;;;5.47;;
35612;SDS011;22054;51.646;7.078;2023-05-07T20:54:32;6.55;;;6.30;;
35612;SDS011;22054;51.646;7.078;2023-05-07T20:57:56;5.78;;;5.57;;
35612;SDS011;22054;51.646;7.078;2023-05-07T21:01:20;5.70;;;5.50;;
35612;SDS011;22054;51.646;7.078;2023-05-07T21:04:44;5.70;;;5.50;;
35612;SDS011;22054;51.646;7.078;2023-05-07T21:08:19;5.70;;;5.50;;